createdAt,value
2023-05-14T00:01:03.797Z,0.9
2023-05-14T00:02:20.006Z,1.1
2023-05-14T00:03:35.202Z,0.9
2023-05-14T00:04:50.354Z,1
2023-05-14T00:06:06.483Z,0.9
2023-05-14T00:07:22.000Z,1
2023-05-14T00:08:38.776Z,0.8
2023-05-14T00:09:54.917Z,1
2023-05-14T00:11:11.050Z,1
2023-05-14T00:12:27.169Z,1
2023-05-14T00:14:59.453Z,0.9
2023-05-14T00:16:15.585Z,0.9
2023-05-14T00:17:31.712Z,1
2023-05-14T00:18:47.853Z,0.9
2023-05-14T00:20:04.000Z,1
2023-05-14T00:21:20.138Z,1
2023-05-14T00:22:36.273Z,0.8
2023-05-14T00:23:52.398Z,1
2023-05-14T00:25:08.532Z,0.9
2023-05-14T00:26:24.679Z,1
2023-05-14T00:27:40.820Z,0.8
2023-05-14T00:28:56.959Z,0.9
2023-05-14T00:30:13.089Z,0.9
2023-05-14T00:31:29.209Z,1
2023-05-14T00:32:45.357Z,0.9
2023-05-14T00:34:01.490Z,0.9
2023-05-14T00:35:17.625Z,1.1
2023-05-14T00:36:33.756Z,1
2023-05-14T00:37:49.889Z,1
2023-05-14T00:39:06.042Z,1.1
2023-05-14T00:40:22.168Z,0.8
2023-05-14T00:41:38.320Z,0.9
2023-05-14T00:42:54.449Z,0.9
2023-05-14T00:44:10.584Z,0.9
2023-05-14T00:45:26.731Z,0.9
2023-05-14T00:46:42.849Z,1
2023-05-14T00:47:58.992Z,0.9
2023-05-14T00:49:15.120Z,0.7
2023-05-14T00:50:31.265Z,0.9
2023-05-14T00:51:47.468Z,0.9
2023-05-14T00:53:02.679Z,0.8
2023-05-14T00:54:17.826Z,0.9
2023-05-14T00:55:33.979Z,0.9
2023-05-14T00:56:50.114Z,0.8
2023-05-14T00:58:06.240Z,0.9
2023-05-14T00:59:22.364Z,1
2023-05-14T01:00:38.510Z,1.1
2023-05-14T01:01:54.652Z,0.8
2023-05-14T01:03:10.779Z,0.9
2023-05-14T01:04:26.915Z,1.1
2023-05-14T01:05:43.044Z,1.1
2023-05-14T01:06:59.186Z,0.9
2023-05-14T01:08:15.336Z,1
2023-05-14T01:09:31.463Z,0.9
2023-05-14T01:10:47.590Z,1
2023-05-14T01:12:03.734Z,0.9
2023-05-14T01:13:19.856Z,0.8
2023-05-14T01:14:36.015Z,1.2
2023-05-14T01:15:52.136Z,0.9
2023-05-14T01:17:08.287Z,0.8
2023-05-14T01:18:24.419Z,0.8
2023-05-14T01:19:40.553Z,0.9
2023-05-14T01:20:56.699Z,1
2023-05-14T01:22:12.817Z,0.9
2023-05-14T01:23:28.967Z,1
2023-05-14T01:24:45.099Z,0.9
2023-05-14T01:26:01.221Z,0.9
2023-05-14T01:27:17.372Z,0.8
2023-05-14T01:28:33.504Z,1
2023-05-14T01:29:49.631Z,1
2023-05-14T01:31:05.909Z,0.9
2023-05-14T01:32:21.068Z,1.1
2023-05-14T01:33:37.205Z,1
2023-05-14T01:34:53.328Z,1
2023-05-14T01:36:09.468Z,0.9
2023-05-14T01:37:25.610Z,0.9
2023-05-14T01:38:41.754Z,0.9
2023-05-14T01:39:57.884Z,1
2023-05-14T01:41:14.020Z,0.9
2023-05-14T01:42:30.156Z,1
2023-05-14T01:43:46.291Z,1
2023-05-14T01:45:02.433Z,0.9
2023-05-14T01:46:18.563Z,0.8
2023-05-14T01:47:34.690Z,1
2023-05-14T01:48:50.831Z,0.9
2023-05-14T01:50:06.955Z,0.9
2023-05-14T01:51:23.114Z,0.9
2023-05-14T01:52:39.233Z,1
2023-05-14T01:53:55.366Z,1
2023-05-14T01:55:11.510Z,1
2023-05-14T01:56:27.632Z,0.9
2023-05-14T01:57:43.789Z,0.9
2023-05-14T01:58:59.918Z,0.8
2023-05-14T02:00:16.052Z,1
2023-05-14T02:02:48.323Z,0.9
2023-05-14T02:04:04.478Z,0.9
2023-05-14T02:05:20.604Z,0.9
2023-05-14T02:06:36.733Z,1
2023-05-14T02:07:52.880Z,0.8
2023-05-14T02:09:09.008Z,0.9
2023-05-14T02:10:25.160Z,1.1
2023-05-14T02:11:41.287Z,0.9
2023-05-14T02:12:57.421Z,0.8
2023-05-14T02:14:13.552Z,0.8
2023-05-14T02:15:29.684Z,1.1
2023-05-14T02:16:45.839Z,0.8
2023-05-14T02:18:01.961Z,0.9
2023-05-14T02:19:18.154Z,0.9
2023-05-14T02:20:33.365Z,0.9
2023-05-14T02:21:49.519Z,0.9
2023-05-14T02:23:05.642Z,0.8
2023-05-14T02:24:21.783Z,0.8
2023-05-14T02:25:37.907Z,0.9
2023-05-14T02:26:54.049Z,0.8
2023-05-14T02:28:10.192Z,0.9
2023-05-14T02:29:26.323Z,0.9
2023-05-14T02:30:42.449Z,0.9
2023-05-14T02:31:58.593Z,1.1
2023-05-14T02:33:14.729Z,0.9
2023-05-14T02:34:30.865Z,1
2023-05-14T02:35:47.003Z,0.9
2023-05-14T02:37:03.137Z,1
2023-05-14T02:38:19.273Z,1
2023-05-14T02:39:35.396Z,1
2023-05-14T02:40:51.554Z,0.8
2023-05-14T02:42:07.689Z,0.9
2023-05-14T02:43:23.819Z,0.9
2023-05-14T02:44:39.951Z,0.9
2023-05-14T02:45:56.081Z,0.9
2023-05-14T02:47:12.232Z,0.9
2023-05-14T02:48:28.364Z,1
2023-05-14T02:49:44.493Z,1
2023-05-14T02:51:00.623Z,0.9
2023-05-14T02:52:16.827Z,0.9
2023-05-14T02:53:32.068Z,0.9
2023-05-14T02:54:47.278Z,0.8
2023-05-14T02:56:02.412Z,0.8
2023-05-14T02:57:18.556Z,0.9
2023-05-14T02:58:34.692Z,1
2023-05-14T02:59:50.827Z,0.8
2023-05-14T03:01:06.959Z,0.9
2023-05-14T03:02:23.105Z,1
2023-05-14T03:03:39.242Z,1
2023-05-14T03:04:55.359Z,0.9
2023-05-14T03:06:11.496Z,1
2023-05-14T03:07:27.629Z,0.8
2023-05-14T03:08:43.773Z,0.9
2023-05-14T03:09:59.907Z,0.9
2023-05-14T03:11:16.043Z,1.1
2023-05-14T03:12:32.178Z,1
2023-05-14T03:13:48.317Z,0.8
2023-05-14T03:15:04.458Z,0.8
2023-05-14T03:16:20.603Z,1
2023-05-14T03:17:36.719Z,0.9
2023-05-14T03:18:52.865Z,0.8
2023-05-14T03:20:08.996Z,0.9
2023-05-14T03:21:25.134Z,1.1
2023-05-14T03:22:41.276Z,0.9
2023-05-14T03:23:57.409Z,1
2023-05-14T03:25:13.538Z,1
2023-05-14T03:26:29.673Z,0.8
2023-05-14T03:27:45.829Z,1
2023-05-14T03:29:01.962Z,1.2
2023-05-14T03:30:18.092Z,0.9
2023-05-14T03:31:34.217Z,0.9
2023-05-14T03:32:50.363Z,1
2023-05-14T03:34:06.499Z,0.8
2023-05-14T03:35:22.630Z,0.8
2023-05-14T03:36:38.776Z,0.8
2023-05-14T03:37:54.900Z,0.7
2023-05-14T03:39:11.036Z,0.9
2023-05-14T03:40:27.183Z,0.9
2023-05-14T03:41:43.317Z,1
2023-05-14T03:42:59.505Z,1
2023-05-14T03:44:14.749Z,0.9
2023-05-14T03:45:29.959Z,0.9
2023-05-14T03:46:46.094Z,0.9
2023-05-14T03:48:02.230Z,0.9
2023-05-14T03:49:18.353Z,0.9
2023-05-14T03:50:34.497Z,1
2023-05-14T03:51:50.641Z,1
2023-05-14T03:53:06.768Z,1
2023-05-14T03:54:22.905Z,0.9
2023-05-14T03:55:39.040Z,0.9
2023-05-14T03:56:55.183Z,0.8
2023-05-14T03:58:11.319Z,0.9
2023-05-14T03:59:27.454Z,0.8
2023-05-14T04:00:43.589Z,0.8
2023-05-14T04:01:59.716Z,0.9
2023-05-14T04:03:15.869Z,0.8
2023-05-14T04:04:31.986Z,0.9
2023-05-14T04:05:48.129Z,0.9
2023-05-14T04:07:04.267Z,1
2023-05-14T04:08:20.401Z,0.8
2023-05-14T04:09:36.534Z,0.8
2023-05-14T04:10:52.667Z,0.9
2023-05-14T04:12:08.811Z,1
2023-05-14T04:13:24.940Z,0.9
2023-05-14T04:14:41.087Z,0.9
2023-05-14T04:15:57.233Z,1
2023-05-14T04:17:13.410Z,0.9
2023-05-14T04:18:28.666Z,1
2023-05-14T04:19:43.888Z,0.9
2023-05-14T04:21:00.026Z,1
2023-05-14T04:22:16.143Z,0.9
2023-05-14T04:23:32.275Z,0.9
2023-05-14T04:24:48.413Z,0.9
2023-05-14T04:26:04.558Z,1
2023-05-14T04:27:20.699Z,1
2023-05-14T04:28:36.840Z,0.9
2023-05-14T04:29:52.973Z,0.8
2023-05-14T04:31:09.100Z,0.9
2023-05-14T04:32:25.244Z,1
2023-05-14T04:33:41.369Z,0.8
2023-05-14T04:34:57.508Z,0.8
2023-05-14T04:36:13.635Z,0.9
2023-05-14T04:37:29.786Z,0.9
2023-05-14T04:38:45.920Z,0.8
2023-05-14T04:40:02.052Z,0.9
2023-05-14T04:41:18.188Z,1
2023-05-14T04:42:34.335Z,0.7
2023-05-14T04:43:50.460Z,0.7
2023-05-14T04:45:06.598Z,0.9
2023-05-14T04:46:22.735Z,0.8
2023-05-14T04:47:38.883Z,0.8
2023-05-14T04:48:55.000Z,1
2023-05-14T04:50:11.146Z,1
2023-05-14T04:51:27.344Z,0.9
2023-05-14T04:52:42.584Z,0.9
2023-05-14T04:53:57.790Z,1
2023-05-14T04:55:13.927Z,0.9
2023-05-14T04:56:30.065Z,0.8
2023-05-14T04:57:46.205Z,0.9
2023-05-14T04:59:02.340Z,0.8
2023-05-14T05:00:18.463Z,1
2023-05-14T05:02:50.745Z,0.9
2023-05-14T05:04:06.873Z,0.9
2023-05-14T05:05:23.019Z,0.8
2023-05-14T05:06:39.143Z,0.8
2023-05-14T05:07:55.299Z,0.9
2023-05-14T05:09:11.435Z,0.8
2023-05-14T05:10:27.677Z,0.9
2023-05-14T05:11:43.813Z,0.9
2023-05-14T05:12:59.950Z,0.8
2023-05-14T05:14:16.097Z,0.9
2023-05-14T05:15:32.223Z,0.9
2023-05-14T05:16:48.359Z,0.8
2023-05-14T05:18:04.499Z,0.9
2023-05-14T05:19:20.640Z,0.9
2023-05-14T05:20:36.781Z,0.8
2023-05-14T05:21:52.910Z,0.8
2023-05-14T05:23:09.053Z,1
2023-05-14T05:24:25.182Z,0.8
2023-05-14T05:25:41.310Z,0.9
2023-05-14T05:26:57.457Z,0.8
2023-05-14T05:28:13.587Z,0.9
2023-05-14T05:29:29.716Z,0.8
2023-05-14T05:30:45.850Z,0.7
2023-05-14T05:32:01.992Z,0.9
2023-05-14T05:33:18.134Z,0.8
2023-05-14T05:34:34.280Z,0.9
2023-05-14T05:35:50.415Z,1
2023-05-14T05:37:06.549Z,0.8
2023-05-14T05:38:22.681Z,0.9
2023-05-14T05:39:38.814Z,0.9
2023-05-14T05:40:54.947Z,1
2023-05-14T05:42:11.084Z,0.9
2023-05-14T05:43:27.223Z,1
2023-05-14T05:44:43.360Z,0.7
2023-05-14T05:45:59.499Z,0.9
2023-05-14T05:47:15.637Z,0.8
2023-05-14T05:48:31.764Z,0.8
2023-05-14T05:49:47.894Z,1
2023-05-14T05:51:04.041Z,1
2023-05-14T05:52:20.180Z,0.8
2023-05-14T05:53:36.312Z,0.9
2023-05-14T05:54:52.444Z,0.8
2023-05-14T05:56:08.578Z,0.8
2023-05-14T05:57:24.767Z,0.8
2023-05-14T05:58:40.006Z,0.9
2023-05-14T05:59:55.220Z,0.8
2023-05-14T06:01:11.347Z,0.9
2023-05-14T06:02:27.498Z,0.9
2023-05-14T06:03:43.625Z,0.9
2023-05-14T06:04:59.770Z,0.9
2023-05-14T06:06:15.895Z,0.8
2023-05-14T06:07:32.041Z,0.8
2023-05-14T06:08:48.181Z,0.7
2023-05-14T06:10:04.318Z,0.8
2023-05-14T06:11:20.441Z,0.9
2023-05-14T06:12:36.572Z,0.8
2023-05-14T06:13:52.705Z,0.9
2023-05-14T06:15:08.867Z,1
2023-05-14T06:16:25.002Z,0.9
2023-05-14T06:17:41.129Z,0.7
2023-05-14T06:18:57.265Z,0.8
2023-05-14T06:20:13.524Z,1
2023-05-14T06:21:29.659Z,0.9
2023-05-14T06:22:45.791Z,0.9
2023-05-14T06:24:01.932Z,0.8
2023-05-14T06:25:18.056Z,0.9
2023-05-14T06:26:34.204Z,0.9
2023-05-14T06:27:50.350Z,0.9
2023-05-14T06:29:06.487Z,0.7
2023-05-14T06:30:22.622Z,0.8
2023-05-14T06:31:38.753Z,0.9
2023-05-14T06:32:54.878Z,0.8
2023-05-14T06:34:11.023Z,0.8
2023-05-14T06:35:27.161Z,0.8
2023-05-14T06:36:43.295Z,0.9
2023-05-14T06:37:59.431Z,1
2023-05-14T06:39:15.565Z,0.9
2023-05-14T06:40:31.716Z,0.9
2023-05-14T06:41:47.851Z,0.9
2023-05-14T06:43:03.977Z,0.9
2023-05-14T06:44:20.107Z,0.9
2023-05-14T06:45:36.247Z,0.8
2023-05-14T06:46:52.398Z,0.9
2023-05-14T06:48:08.523Z,0.9
2023-05-14T06:49:24.659Z,0.9
2023-05-14T06:50:40.791Z,0.8
2023-05-14T06:51:56.929Z,0.8
2023-05-14T06:53:13.062Z,0.9
2023-05-14T06:54:29.207Z,0.8
2023-05-14T06:55:45.346Z,0.7
2023-05-14T06:57:01.469Z,0.8
2023-05-14T06:58:17.595Z,0.9
2023-05-14T06:59:33.750Z,0.9
2023-05-14T07:00:49.877Z,0.8
2023-05-14T07:02:06.024Z,0.8
2023-05-14T07:03:22.156Z,0.7
2023-05-14T07:04:38.290Z,0.7
2023-05-14T07:05:54.440Z,0.9
2023-05-14T07:07:10.617Z,0.9
2023-05-14T07:08:25.840Z,0.8
2023-05-14T07:09:41.974Z,0.8
2023-05-14T07:10:58.115Z,0.9
2023-05-14T07:12:14.242Z,0.9
2023-05-14T07:13:30.377Z,0.8
2023-05-14T07:14:46.522Z,0.8
2023-05-14T07:16:02.637Z,0.8
2023-05-14T07:17:18.804Z,0.8
2023-05-14T07:18:34.927Z,0.9
2023-05-14T07:19:51.053Z,0.8
2023-05-14T07:21:07.203Z,0.8
2023-05-14T07:22:23.332Z,0.8
2023-05-14T07:23:39.477Z,0.9
2023-05-14T07:24:55.612Z,0.7
2023-05-14T07:26:11.734Z,0.7
2023-05-14T07:27:27.874Z,1
2023-05-14T07:28:44.011Z,0.8
2023-05-14T07:30:00.161Z,0.8
2023-05-14T07:31:16.295Z,0.8
2023-05-14T07:32:32.416Z,0.8
2023-05-14T07:33:48.563Z,1
2023-05-14T07:35:04.696Z,0.8
2023-05-14T07:36:20.830Z,0.8
2023-05-14T07:37:36.972Z,0.7
2023-05-14T07:38:53.098Z,0.7
2023-05-14T07:40:09.292Z,0.9
2023-05-14T07:41:24.502Z,0.8
2023-05-14T07:42:40.633Z,0.9
2023-05-14T07:43:56.765Z,0.9
2023-05-14T07:45:12.914Z,0.8
2023-05-14T07:46:29.044Z,0.7
2023-05-14T07:47:45.182Z,0.8
2023-05-14T07:49:01.324Z,0.9
2023-05-14T07:50:17.451Z,0.8
2023-05-14T07:51:33.582Z,0.7
2023-05-14T07:52:49.732Z,0.8
2023-05-14T07:54:05.863Z,0.7
2023-05-14T07:55:22.002Z,0.7
2023-05-14T07:56:38.131Z,0.8
2023-05-14T07:57:54.279Z,0.9
2023-05-14T07:59:10.401Z,0.9
2023-05-14T08:00:26.556Z,0.7
2023-05-14T08:01:42.678Z,0.7
2023-05-14T08:02:58.828Z,0.7
2023-05-14T08:04:14.960Z,0.7
2023-05-14T08:05:31.078Z,0.7
2023-05-14T08:06:47.234Z,0.6
2023-05-14T08:08:03.366Z,0.7
2023-05-14T08:09:19.495Z,0.6
2023-05-14T08:10:35.641Z,0.8
2023-05-14T08:11:51.765Z,0.7
2023-05-14T08:13:07.972Z,0.8
2023-05-14T08:14:23.217Z,0.7
2023-05-14T08:15:38.415Z,0.6
2023-05-14T08:16:54.559Z,0.7
2023-05-14T08:18:10.696Z,0.7
2023-05-14T08:19:26.825Z,0.6
2023-05-14T08:20:42.974Z,0.7
2023-05-14T08:21:59.106Z,0.7
2023-05-14T08:23:15.249Z,0.7
2023-05-14T08:24:31.387Z,0.6
2023-05-14T08:25:47.512Z,0.8
2023-05-14T08:27:03.652Z,0.6
2023-05-14T08:28:19.794Z,0.7
2023-05-14T08:29:35.940Z,0.6
2023-05-14T08:30:52.077Z,0.7
2023-05-14T08:32:08.197Z,0.7
2023-05-14T08:33:24.327Z,0.6
2023-05-14T08:34:40.476Z,0.6
2023-05-14T08:35:56.610Z,0.6
2023-05-14T08:37:12.745Z,0.5
2023-05-14T08:38:28.893Z,0.6
2023-05-14T08:39:45.027Z,0.6
2023-05-14T08:41:01.153Z,0.6
2023-05-14T08:42:17.305Z,0.6
2023-05-14T08:43:33.428Z,0.6
2023-05-14T08:44:49.581Z,0.8
2023-05-14T08:46:05.696Z,0.7
2023-05-14T08:47:21.895Z,0.6
2023-05-14T08:48:37.152Z,0.5
2023-05-14T08:49:52.370Z,0.5
2023-05-14T08:51:08.491Z,0.8
2023-05-14T08:52:24.653Z,0.6
2023-05-14T08:53:40.786Z,0.6
2023-05-14T08:54:56.908Z,0.8
2023-05-14T08:56:13.053Z,0.6
2023-05-14T08:57:29.185Z,0.7
2023-05-14T08:58:45.330Z,0.8
2023-05-14T09:00:01.469Z,0.7
2023-05-14T09:01:17.603Z,0.7
2023-05-14T09:02:33.733Z,0.6
2023-05-14T09:03:49.879Z,0.7
2023-05-14T09:05:06.010Z,0.7
2023-05-14T09:06:22.149Z,0.7
2023-05-14T09:07:38.287Z,0.6
2023-05-14T09:08:54.413Z,0.6
2023-05-14T09:10:10.542Z,0.7
2023-05-14T09:11:26.706Z,0.7
2023-05-14T09:12:42.834Z,0.7
2023-05-14T09:13:58.962Z,0.7
2023-05-14T09:15:15.105Z,0.8
2023-05-14T09:16:31.226Z,0.8
2023-05-14T09:17:47.378Z,0.6
2023-05-14T09:19:03.514Z,0.8
2023-05-14T09:20:19.648Z,0.6
2023-05-14T09:21:35.846Z,0.7
2023-05-14T09:22:51.087Z,0.7
2023-05-14T09:24:06.292Z,0.7
2023-05-14T09:25:21.435Z,0.8
2023-05-14T09:26:37.585Z,0.6
2023-05-14T09:27:53.717Z,0.7
2023-05-14T09:29:09.854Z,0.8
2023-05-14T09:30:26.000Z,0.8
2023-05-14T09:31:42.118Z,0.8
2023-05-14T09:32:58.283Z,0.7
2023-05-14T09:34:14.412Z,0.8
2023-05-14T09:35:30.535Z,0.8
2023-05-14T09:36:46.681Z,0.8
2023-05-14T09:38:02.807Z,0.7
2023-05-14T09:39:18.961Z,0.9
2023-05-14T09:40:35.094Z,0.7
2023-05-14T09:41:51.234Z,0.8
2023-05-14T09:43:07.355Z,0.8
2023-05-14T09:44:23.493Z,0.7
2023-05-14T09:45:39.641Z,0.8
2023-05-14T09:46:55.777Z,0.6
2023-05-14T09:48:11.917Z,0.8
2023-05-14T09:49:28.051Z,0.8
2023-05-14T09:50:44.168Z,0.7
2023-05-14T09:52:00.333Z,0.8
2023-05-14T09:53:16.460Z,0.8
2023-05-14T09:54:32.596Z,0.6
2023-05-14T09:55:48.000Z,0.7
2023-05-14T09:57:04.852Z,0.8
2023-05-14T09:58:21.011Z,0.8
2023-05-14T09:59:37.148Z,0.8
2023-05-14T10:00:53.283Z,0.6
2023-05-14T10:02:09.419Z,0.7
2023-05-14T10:03:25.550Z,0.7
2023-05-14T10:04:41.699Z,0.7
2023-05-14T10:05:57.827Z,0.7
2023-05-14T10:07:13.966Z,0.5
2023-05-14T10:08:30.089Z,0.7
2023-05-14T10:09:46.223Z,0.8
2023-05-14T10:11:02.373Z,0.7
2023-05-14T10:12:18.564Z,0.6
2023-05-14T10:13:33.822Z,0.7
2023-05-14T10:14:49.032Z,0.8
2023-05-14T10:16:05.153Z,0.7
2023-05-14T10:17:21.283Z,0.6
2023-05-14T10:18:37.435Z,0.5
2023-05-14T10:19:53.569Z,0.7
2023-05-14T10:21:09.710Z,0.7
2023-05-14T10:22:25.848Z,0.7
2023-05-14T10:23:41.976Z,0.7
2023-05-14T10:24:58.111Z,0.7
2023-05-14T10:26:14.252Z,0.7
2023-05-14T10:27:30.404Z,0.9
2023-05-14T10:28:46.535Z,0.8
2023-05-14T10:30:02.661Z,0.7
2023-05-14T10:31:18.802Z,0.7
2023-05-14T10:32:34.932Z,0.6
2023-05-14T10:33:51.089Z,0.7
2023-05-14T10:35:07.227Z,0.8
2023-05-14T10:36:23.345Z,0.8
2023-05-14T10:37:39.484Z,0.6
2023-05-14T10:38:55.618Z,0.8
2023-05-14T10:40:11.762Z,0.7
2023-05-14T10:41:27.916Z,0.6
2023-05-14T10:42:44.047Z,0.7
2023-05-14T10:44:00.183Z,0.7
2023-05-14T10:45:16.315Z,0.8
2023-05-14T10:46:32.510Z,0.8
2023-05-14T10:47:47.749Z,0.8
2023-05-14T10:49:02.973Z,0.8
2023-05-14T10:50:19.121Z,0.8
2023-05-14T10:51:35.254Z,0.8
2023-05-14T10:52:51.380Z,0.7
2023-05-14T10:54:07.503Z,0.8
2023-05-14T10:55:23.642Z,1
2023-05-14T10:56:39.801Z,0.8
2023-05-14T10:57:55.935Z,1
2023-05-14T10:59:12.074Z,0.7
2023-05-14T11:00:28.199Z,0.9
2023-05-14T11:01:44.329Z,0.8
2023-05-14T11:03:00.488Z,0.9
2023-05-14T11:04:16.622Z,0.8
2023-05-14T11:05:32.759Z,0.8
2023-05-14T11:06:48.888Z,1
2023-05-14T11:08:05.030Z,0.9
2023-05-14T11:09:21.160Z,0.9
2023-05-14T11:10:37.313Z,0.8
2023-05-14T11:11:53.442Z,1
2023-05-14T11:13:09.573Z,1
2023-05-14T11:14:25.701Z,0.8
2023-05-14T11:15:41.856Z,0.9
2023-05-14T11:16:57.978Z,1
2023-05-14T11:18:14.128Z,0.9
2023-05-14T11:19:30.246Z,0.8
2023-05-14T11:20:46.441Z,0.9
2023-05-14T11:22:01.692Z,0.8
2023-05-14T11:23:17.877Z,1
2023-05-14T11:24:33.079Z,0.9
2023-05-14T11:25:49.228Z,0.9
2023-05-14T11:27:05.367Z,0.8
2023-05-14T11:28:21.494Z,1
2023-05-14T11:29:37.641Z,0.7
2023-05-14T11:30:53.760Z,1
2023-05-14T11:32:09.911Z,0.9
2023-05-14T11:33:26.050Z,1
2023-05-14T11:34:42.183Z,0.8
2023-05-14T11:35:58.325Z,1
2023-05-14T11:37:14.444Z,0.9
2023-05-14T11:38:30.588Z,0.9
2023-05-14T11:39:46.723Z,0.9
2023-05-14T11:41:02.870Z,0.9
2023-05-14T11:42:18.999Z,0.9
2023-05-14T11:43:35.132Z,0.8
2023-05-14T11:44:51.276Z,0.9
2023-05-14T11:46:07.407Z,0.8
2023-05-14T11:47:23.556Z,0.9
2023-05-14T11:48:39.673Z,1
2023-05-14T11:49:55.822Z,0.9
2023-05-14T11:51:11.958Z,0.9
2023-05-14T11:52:28.089Z,0.9
2023-05-14T11:53:44.224Z,1
2023-05-14T11:55:00.363Z,0.8
2023-05-14T11:56:16.556Z,0.9
2023-05-14T11:57:31.791Z,1
2023-05-14T11:58:46.999Z,1
2023-05-14T12:00:03.130Z,0.7
2023-05-14T12:01:19.291Z,0.9
2023-05-14T12:02:35.420Z,0.8
2023-05-14T12:03:51.550Z,0.9
2023-05-14T12:05:07.698Z,1
2023-05-14T12:06:23.821Z,1
2023-05-14T12:07:39.970Z,1.1
2023-05-14T12:08:56.109Z,1
2023-05-14T12:10:12.236Z,0.9
2023-05-14T12:11:28.376Z,0.8
2023-05-14T12:12:44.512Z,1.1
2023-05-14T12:14:00.652Z,0.8
2023-05-14T12:15:16.783Z,1
2023-05-14T12:16:32.925Z,0.9
2023-05-14T12:17:49.045Z,1.1
2023-05-14T12:19:05.181Z,1
2023-05-14T12:20:21.328Z,0.9
2023-05-14T12:21:37.459Z,1
2023-05-14T12:22:53.593Z,1.1
2023-05-14T12:24:09.738Z,1
2023-05-14T12:25:25.872Z,0.9
2023-05-14T12:26:42.020Z,1
2023-05-14T12:27:58.153Z,1
2023-05-14T12:29:14.277Z,1
2023-05-14T12:30:30.469Z,0.9
2023-05-14T12:31:45.708Z,1.2
2023-05-14T12:33:00.925Z,0.8
2023-05-14T12:34:16.082Z,1
2023-05-14T12:35:32.217Z,0.9
2023-05-14T12:36:48.363Z,1
2023-05-14T12:38:04.500Z,0.8
2023-05-14T12:39:20.629Z,0.9
2023-05-14T12:40:36.759Z,1
2023-05-14T12:41:52.914Z,0.9
2023-05-14T12:43:09.047Z,1
2023-05-14T12:44:25.173Z,1
2023-05-14T12:45:41.299Z,1
2023-05-14T12:46:57.435Z,1
2023-05-14T12:48:13.580Z,1.2
2023-05-14T12:49:29.725Z,0.9
2023-05-14T12:50:45.845Z,1
2023-05-14T12:52:01.988Z,1
2023-05-14T12:53:18.130Z,0.9
2023-05-14T12:54:34.268Z,1
2023-05-14T12:55:50.393Z,1
2023-05-14T12:57:06.545Z,1.2
2023-05-14T12:58:22.678Z,0.9
2023-05-14T12:59:38.801Z,1
2023-05-14T13:00:54.954Z,1
2023-05-14T13:02:11.088Z,1.1
2023-05-14T13:03:27.227Z,1.1
2023-05-14T13:04:43.353Z,1
2023-05-14T13:05:59.488Z,0.9
2023-05-14T13:07:15.640Z,0.9
2023-05-14T13:08:31.762Z,1
2023-05-14T13:09:47.905Z,1
2023-05-14T13:11:04.037Z,1
2023-05-14T13:12:20.170Z,1
2023-05-14T13:13:36.322Z,0.9
2023-05-14T13:14:52.455Z,1.1
2023-05-14T13:16:08.585Z,1
2023-05-14T13:17:24.721Z,1
2023-05-14T13:18:40.843Z,1
2023-05-14T13:19:57.003Z,0.8
2023-05-14T13:21:13.182Z,0.9
2023-05-14T13:22:28.435Z,1
2023-05-14T13:23:43.650Z,1
2023-05-14T13:24:59.775Z,1.1
2023-05-14T13:26:15.925Z,1.1
2023-05-14T13:27:32.049Z,1.2
2023-05-14T13:28:48.187Z,1.1
2023-05-14T13:30:04.334Z,1
2023-05-14T13:31:20.472Z,1
2023-05-14T13:32:36.597Z,1
2023-05-14T13:33:52.731Z,1.1
2023-05-14T13:35:08.857Z,1
2023-05-14T13:36:25.016Z,1
2023-05-14T13:37:41.138Z,1
2023-05-14T13:38:57.270Z,1.1
2023-05-14T13:40:13.421Z,1
2023-05-14T13:41:29.546Z,1.1
2023-05-14T13:42:45.699Z,1.1
2023-05-14T13:44:01.836Z,0.9
2023-05-14T13:45:17.957Z,1.1
2023-05-14T13:46:34.101Z,1.1
2023-05-14T13:47:50.236Z,1.1
2023-05-14T13:49:06.372Z,1.1
2023-05-14T13:50:22.520Z,1.2
2023-05-14T13:51:38.646Z,1.1
2023-05-14T13:52:54.784Z,1.1
2023-05-14T13:54:10.903Z,1.2
2023-05-14T13:55:27.129Z,1.1
2023-05-14T13:56:42.368Z,1.1
2023-05-14T13:57:58.551Z,1.2
2023-05-14T13:59:13.757Z,1.1
2023-05-14T14:00:29.890Z,1.1
2023-05-14T14:01:46.020Z,1
2023-05-14T14:03:02.161Z,1.1
2023-05-14T14:04:18.299Z,1.1
2023-05-14T14:05:34.446Z,1.1
2023-05-14T14:06:50.570Z,1.1
2023-05-14T14:08:06.711Z,1.1
2023-05-14T14:09:22.844Z,1.1
2023-05-14T14:10:38.979Z,1
2023-05-14T14:11:55.133Z,1.1
2023-05-14T14:13:11.265Z,1.1
2023-05-14T14:14:27.393Z,1
2023-05-14T14:15:43.530Z,1.1
2023-05-14T14:16:59.654Z,1.2
2023-05-14T14:18:15.816Z,1.2
2023-05-14T14:19:31.947Z,1.3
2023-05-14T14:20:48.076Z,1
2023-05-14T14:22:04.212Z,1.1
2023-05-14T14:23:20.347Z,1.2
2023-05-14T14:24:36.484Z,1
2023-05-14T14:25:52.628Z,1.3
2023-05-14T14:27:08.756Z,1.1
2023-05-14T14:28:24.890Z,1.3
2023-05-14T14:29:41.020Z,1.1
2023-05-14T14:30:57.223Z,1.1
2023-05-14T14:32:12.472Z,1.2
2023-05-14T14:33:27.684Z,1.2
2023-05-14T14:34:43.816Z,1.1
2023-05-14T14:35:59.960Z,1.1
2023-05-14T14:37:16.078Z,1.2
2023-05-14T14:38:32.211Z,1.2
2023-05-14T14:39:48.344Z,1
2023-05-14T14:41:04.504Z,1
2023-05-14T14:42:20.639Z,1.2
2023-05-14T14:43:36.773Z,1.2
2023-05-14T14:44:52.903Z,1.2
2023-05-14T14:46:09.025Z,1
2023-05-14T14:47:25.184Z,1.1
2023-05-14T14:48:41.315Z,1.2
2023-05-14T14:49:57.452Z,1
2023-05-14T14:51:13.577Z,1.1
2023-05-14T14:52:29.711Z,1.4
2023-05-14T14:53:45.860Z,1
2023-05-14T14:55:01.996Z,1.1
2023-05-14T14:56:18.136Z,1.2
2023-05-14T14:57:34.255Z,1.1
2023-05-14T14:58:50.389Z,1.2
2023-05-14T15:00:06.541Z,1.3
2023-05-14T15:01:22.672Z,1.1
2023-05-14T15:02:38.819Z,1.2
2023-05-14T15:03:54.947Z,1.1
2023-05-14T15:05:11.142Z,1.1
2023-05-14T15:06:26.376Z,1
2023-05-14T15:07:41.582Z,1
2023-05-14T15:08:57.725Z,1.1
2023-05-14T15:10:13.866Z,1.2
2023-05-14T15:11:29.998Z,1.2
2023-05-14T15:12:46.122Z,1.1
2023-05-14T15:14:02.260Z,1.1
2023-05-14T15:15:18.407Z,1.2
2023-05-14T15:16:34.553Z,1.2
2023-05-14T15:17:50.680Z,1.2
2023-05-14T15:19:06.821Z,1.1
2023-05-14T15:20:22.948Z,1
2023-05-14T15:21:39.085Z,1.1
2023-05-14T15:22:55.229Z,1
2023-05-14T15:24:11.360Z,1.2
2023-05-14T15:25:27.503Z,1.1
2023-05-14T15:26:43.625Z,1
2023-05-14T15:27:59.750Z,1.1
2023-05-14T15:29:15.913Z,1.2
2023-05-14T15:30:32.042Z,1.1
2023-05-14T15:31:48.180Z,1.1
2023-05-14T15:33:04.000Z,1.2
2023-05-14T15:34:20.448Z,1.1
2023-05-14T15:35:36.594Z,1
2023-05-14T15:36:52.724Z,1.2
2023-05-14T15:38:08.866Z,1.1
2023-05-14T15:39:25.055Z,1.2
2023-05-14T15:40:40.291Z,1.1
2023-05-14T15:41:56.485Z,1.1
2023-05-14T15:43:11.690Z,1.2
2023-05-14T15:44:27.814Z,1
2023-05-14T15:45:43.962Z,1.1
2023-05-14T15:47:00.107Z,1.3
2023-05-14T15:48:16.230Z,1
2023-05-14T15:49:32.376Z,1
2023-05-14T15:50:48.509Z,1
2023-05-14T15:52:04.639Z,1
2023-05-14T15:53:20.781Z,1.3
2023-05-14T15:54:36.920Z,1.2
2023-05-14T15:55:53.048Z,1.1
2023-05-14T15:57:09.181Z,1.1
2023-05-14T15:58:25.326Z,1
2023-05-14T15:59:41.469Z,1.2
2023-05-14T16:00:57.603Z,1
2023-05-14T16:02:13.721Z,1
2023-05-14T16:03:29.856Z,1.2
2023-05-14T16:04:46.013Z,1.1
2023-05-14T16:06:02.136Z,1.2
2023-05-14T16:07:18.271Z,1.2
2023-05-14T16:08:34.404Z,1.1
2023-05-14T16:09:50.547Z,1.2
2023-05-14T16:11:06.699Z,1.2
2023-05-14T16:12:22.836Z,1.2
2023-05-14T16:13:38.961Z,1.1
2023-05-14T16:14:55.150Z,1.1
2023-05-14T16:16:10.383Z,1.2
2023-05-14T16:17:25.601Z,1.1
2023-05-14T16:18:40.752Z,1.1
2023-05-14T16:19:56.889Z,1
2023-05-14T16:21:13.023Z,1.1
2023-05-14T16:22:29.173Z,1
2023-05-14T16:23:45.299Z,1.2
2023-05-14T16:25:01.433Z,1.2
2023-05-14T16:26:17.572Z,1.1
2023-05-14T16:27:33.716Z,1
2023-05-14T16:28:49.837Z,1
2023-05-14T16:30:05.975Z,1.1
2023-05-14T16:31:22.110Z,1.1
2023-05-14T16:32:38.266Z,1
2023-05-14T16:33:54.403Z,1.2
2023-05-14T16:35:10.523Z,1.1
2023-05-14T16:36:26.660Z,1.1
2023-05-14T16:37:42.793Z,1
2023-05-14T16:38:58.951Z,1
2023-05-14T16:40:15.072Z,1
2023-05-14T16:41:31.211Z,1.2
2023-05-14T16:42:47.348Z,1
2023-05-14T16:44:03.474Z,1.1
2023-05-14T16:45:19.632Z,1.2
2023-05-14T16:46:35.756Z,1.1
2023-05-14T16:47:51.898Z,1.1
2023-05-14T16:49:08.027Z,1.2
2023-05-14T16:50:24.158Z,1
2023-05-14T16:51:40.314Z,1
2023-05-14T16:52:56.443Z,1.1
2023-05-14T16:54:12.577Z,1.1
2023-05-14T16:55:28.695Z,1
2023-05-14T16:56:44.844Z,1
2023-05-14T16:58:00.987Z,1.1
2023-05-14T16:59:17.122Z,0.9
2023-05-14T17:00:33.259Z,1.2
2023-05-14T17:01:49.393Z,1.1
2023-05-14T17:03:05.517Z,1.1
2023-05-14T17:04:21.668Z,1.1
2023-05-14T17:05:37.858Z,1
2023-05-14T17:06:53.107Z,1.2
2023-05-14T17:08:08.300Z,1.1
2023-05-14T17:09:24.449Z,1.2
2023-05-14T17:10:40.573Z,1
2023-05-14T17:11:56.710Z,1.2
2023-05-14T17:13:12.835Z,1.3
2023-05-14T17:14:28.978Z,1.2
2023-05-14T17:15:45.124Z,1
2023-05-14T17:17:01.254Z,1
2023-05-14T17:18:17.379Z,1.1
2023-05-14T17:19:33.516Z,1.1
2023-05-14T17:20:49.677Z,1.2
2023-05-14T17:22:05.799Z,1.2
2023-05-14T17:23:21.927Z,1.1
2023-05-14T17:24:38.064Z,1.2
2023-05-14T17:25:54.209Z,1.2
2023-05-14T17:27:10.344Z,1.2
2023-05-14T17:28:26.472Z,1
2023-05-14T17:29:42.608Z,1
2023-05-14T17:30:58.740Z,1
2023-05-14T17:32:14.880Z,1.2
2023-05-14T17:33:31.020Z,1.1
2023-05-14T17:34:47.171Z,1.2
2023-05-14T17:36:03.287Z,1.1
2023-05-14T17:37:19.435Z,1.2
2023-05-14T17:38:35.556Z,1
2023-05-14T17:39:51.775Z,1.2
2023-05-14T17:41:07.022Z,1.1
2023-05-14T17:42:22.226Z,1
2023-05-14T17:43:38.000Z,1.1
2023-05-14T17:44:54.499Z,1.2
2023-05-14T17:46:10.646Z,1.2
2023-05-14T17:47:26.782Z,1.2